sensor_id;sensor_type;location;lat;lon;timestamp;temperature;humidity
573;DHT22;271;51.114;13.780;2022-11-20T00:00:23;-5.30;1.00
573;DHT22;271;51.114;13.780;2022-11-20T00:02:50;-5.30;1.00
573;DHT22;271;51.114;13.780;2022-11-20T00:05:18;-5.50;1.00
573;DHT22;271;51.114;13.780;2022-11-20T00:07:47;-5.30;1.00
573;DHT22;271;51.114;13.780;2022-11-20T00:10:14;-5.40;1.00
573;DHT22;271;51.114;13.780;2022-11-20T00:12:41;-5.20;1.00
573;DHT22;271;51.114;13.780;2022-11-20T00:15:10;-5.30;1.00
573;DHT22;271;51.114;13.780;2022-11-20T00:17:38;-5.40;1.00
573;DHT22;271;51.114;13.780;2022-11-20T00:20:06;-5.40;1.00
573;DHT22;271;51.114;13.780;2022-11-20T00:22:33;-5.50;1.00
573;DHT22;271;51.114;13.780;2022-11-20T00:25:01;-5.40;1.00
573;DHT22;271;51.114;13.780;2022-11-20T00:27:28;-5.40;1.00
573;DHT22;271;51.114;13.780;2022-11-20T00:29:56;-5.40;1.00
573;DHT22;271;51.114;13.780;2022-11-20T00:32:24;-5.50;1.00
573;DHT22;271;51.114;13.780;2022-11-20T00:34:52;-5.40;1.00
573;DHT22;271;51.114;13.780;2022-11-20T00:37:19;-5.40;1.00
573;DHT22;271;51.114;13.780;2022-11-20T00:39:46;-5.50;1.00
573;DHT22;271;51.114;13.780;2022-11-20T00:42:14;-5.50;1.00
573;DHT22;271;51.114;13.780;2022-11-20T00:44:41;-5.50;1.00
573;DHT22;271;51.114;13.780;2022-11-20T00:47:09;-5.50;1.00
573;DHT22;271;51.114;13.780;2022-11-20T00:49:37;-5.50;1.00
573;DHT22;271;51.114;13.780;2022-11-20T00:52:05;-5.50;1.00
573;DHT22;271;51.114;13.780;2022-11-20T00:54:32;-5.50;1.00
573;DHT22;271;51.114;13.780;2022-11-20T00:56:59;-5.50;1.00
573;DHT22;271;51.114;13.780;2022-11-20T00:59:27;-5.40;1.00
573;DHT22;271;51.114;13.780;2022-11-20T01:01:54;-5.40;1.00
573;DHT22;271;51.114;13.780;2022-11-20T01:04:22;-5.50;1.00
573;DHT22;271;51.114;13.780;2022-11-20T01:06:50;-5.40;1.00
573;DHT22;271;51.114;13.780;2022-11-20T01:09:18;-5.40;1.00
573;DHT22;271;51.114;13.780;2022-11-20T01:11:45;-5.40;1.00
573;DHT22;271;51.114;13.780;2022-11-20T01:14:14;-5.50;1.00
573;DHT22;271;51.114;13.780;2022-11-20T01:16:44;-5.50;1.00
573;DHT22;271;51.114;13.780;2022-11-20T01:19:14;-5.50;1.00
573;DHT22;271;51.114;13.780;2022-11-20T01:21:43;-5.50;1.00
573;DHT22;271;51.114;13.780;2022-11-20T01:24:14;-5.50;1.00
573;DHT22;271;51.114;13.780;2022-11-20T01:26:43;-5.50;1.00
573;DHT22;271;51.114;13.780;2022-11-20T01:29:14;-5.50;1.00
573;DHT22;271;51.114;13.780;2022-11-20T01:31:41;-5.50;1.00
573;DHT22;271;51.114;13.780;2022-11-20T01:34:10;-5.50;1.00
573;DHT22;271;51.114;13.780;2022-11-20T01:36:38;-5.50;1.00
573;DHT22;271;51.114;13.780;2022-11-20T01:39:11;-5.50;1.00
573;DHT22;271;51.114;13.780;2022-11-20T01:41:40;-5.50;1.00
573;DHT22;271;51.114;13.780;2022-11-20T01:44:45;-5.50;1.00
573;DHT22;271;51.114;13.780;2022-11-20T01:47:17;-5.50;1.00
573;DHT22;271;51.114;13.780;2022-11-20T01:49:50;-5.60;1.00
573;DHT22;271;51.114;13.780;2022-11-20T01:52:19;-5.60;1.00
573;DHT22;271;51.114;13.780;2022-11-20T01:54:53;-5.60;1.00
573;DHT22;271;51.114;13.780;2022-11-20T01:57:25;-5.60;1.00
573;DHT22;271;51.114;13.780;2022-11-20T01:59:59;-5.70;1.00
573;DHT22;271;51.114;13.780;2022-11-20T02:02:27;-5.70;1.00
573;DHT22;271;51.114;13.780;2022-11-20T02:04:57;-5.60;1.00
573;DHT22;271;51.114;13.780;2022-11-20T02:07:28;-5.60;1.00
573;DHT22;271;51.114;13.780;2022-11-20T02:09:55;-5.60;1.00
573;DHT22;271;51.114;13.780;2022-11-20T02:12:24;-5.60;1.00
573;DHT22;271;51.114;13.780;2022-11-20T02:15:09;-5.70;1.00
573;DHT22;271;51.114;13.780;2022-11-20T02:17:37;-5.70;1.00
573;DHT22;271;51.114;13.780;2022-11-20T02:20:06;-5.80;1.00
573;DHT22;271;51.114;13.780;2022-11-20T02:22:39;-5.80;1.00
573;DHT22;271;51.114;13.780;2022-11-20T02:25:10;-5.70;1.00
573;DHT22;271;51.114;13.780;2022-11-20T02:27:38;-5.60;1.00
573;DHT22;271;51.114;13.780;2022-11-20T02:30:07;-5.80;1.00
573;DHT22;271;51.114;13.780;2022-11-20T02:32:37;-5.80;1.00
573;DHT22;271;51.114;13.780;2022-11-20T02:35:09;-5.80;1.00
573;DHT22;271;51.114;13.780;2022-11-20T02:37:38;-5.70;1.00
573;DHT22;271;51.114;13.780;2022-11-20T02:40:08;-5.80;1.00
573;DHT22;271;51.114;13.780;2022-11-20T02:42:37;-5.80;1.00
573;DHT22;271;51.114;13.780;2022-11-20T02:45:05;-5.70;1.00
573;DHT22;271;51.114;13.780;2022-11-20T02:47:33;-5.80;1.00
573;DHT22;271;51.114;13.780;2022-11-20T02:50:01;-5.70;1.00
573;DHT22;271;51.114;13.780;2022-11-20T02:52:28;-5.70;1.00
573;DHT22;271;51.114;13.780;2022-11-20T02:54:55;-5.80;1.00
573;DHT22;271;51.114;13.780;2022-11-20T02:57:23;-5.80;1.00
573;DHT22;271;51.114;13.780;2022-11-20T02:59:52;-5.90;1.00
573;DHT22;271;51.114;13.780;2022-11-20T03:02:19;-5.90;1.00
573;DHT22;271;51.114;13.780;2022-11-20T03:04:47;-5.90;1.00
573;DHT22;271;51.114;13.780;2022-11-20T03:07:15;-5.90;1.00
573;DHT22;271;51.114;13.780;2022-11-20T03:09:42;-5.80;1.00
573;DHT22;271;51.114;13.780;2022-11-20T03:12:09;-5.80;1.00
573;DHT22;271;51.114;13.780;2022-11-20T03:14:37;-5.80;1.00
573;DHT22;271;51.114;13.780;2022-11-20T03:17:06;-5.90;1.00
573;DHT22;271;51.114;13.780;2022-11-20T03:19:33;-6.00;1.00
573;DHT22;271;51.114;13.780;2022-11-20T03:22:01;-5.90;1.00
573;DHT22;271;51.114;13.780;2022-11-20T03:24:29;-6.10;1.00
573;DHT22;271;51.114;13.780;2022-11-20T03:26:56;-6.10;1.00
573;DHT22;271;51.114;13.780;2022-11-20T03:29:23;-6.00;1.00
573;DHT22;271;51.114;13.780;2022-11-20T03:31:51;-6.10;1.00
573;DHT22;271;51.114;13.780;2022-11-20T03:34:20;-6.10;1.00
573;DHT22;271;51.114;13.780;2022-11-20T03:36:47;-6.10;1.00
573;DHT22;271;51.114;13.780;2022-11-20T03:39:14;-6.10;1.00
573;DHT22;271;51.114;13.780;2022-11-20T03:41:42;-6.10;1.00
573;DHT22;271;51.114;13.780;2022-11-20T03:44:10;-6.10;1.00
573;DHT22;271;51.114;13.780;2022-11-20T03:46:38;-6.10;1.00
573;DHT22;271;51.114;13.780;2022-11-20T03:49:06;-6.00;1.00
573;DHT22;271;51.114;13.780;2022-11-20T03:51:36;-6.00;1.00
573;DHT22;271;51.114;13.780;2022-11-20T03:54:06;-6.00;1.00
573;DHT22;271;51.114;13.780;2022-11-20T03:56:38;-6.00;1.00
573;DHT22;271;51.114;13.780;2022-11-20T03:59:06;-6.00;1.00
573;DHT22;271;51.114;13.780;2022-11-20T04:01:35;-6.00;1.00
573;DHT22;271;51.114;13.780;2022-11-20T04:04:04;-6.00;1.00
573;DHT22;271;51.114;13.780;2022-11-20T04:06:35;-5.90;1.00
573;DHT22;271;51.114;13.780;2022-11-20T04:09:03;-5.90;1.00
573;DHT22;271;51.114;13.780;2022-11-20T04:11:33;-5.90;1.00
573;DHT22;271;51.114;13.780;2022-11-20T04:14:02;-6.00;1.00
573;DHT22;271;51.114;13.780;2022-11-20T04:16:31;-6.00;1.00
573;DHT22;271;51.114;13.780;2022-11-20T04:19:00;-6.00;1.00
573;DHT22;271;51.114;13.780;2022-11-20T04:21:28;-5.90;1.00
573;DHT22;271;51.114;13.780;2022-11-20T04:23:57;-6.00;1.00
573;DHT22;271;51.114;13.780;2022-11-20T04:26:27;-6.00;1.00
573;DHT22;271;51.114;13.780;2022-11-20T04:28:55;-6.00;1.00
573;DHT22;271;51.114;13.780;2022-11-20T04:31:24;-6.00;1.00
573;DHT22;271;51.114;13.780;2022-11-20T04:33:52;-6.10;1.00
573;DHT22;271;51.114;13.780;2022-11-20T04:36:21;-6.10;1.00
573;DHT22;271;51.114;13.780;2022-11-20T04:38:50;-6.10;1.00
573;DHT22;271;51.114;13.780;2022-11-20T04:41:20;-6.10;1.00
573;DHT22;271;51.114;13.780;2022-11-20T04:43:49;-6.20;1.00
573;DHT22;271;51.114;13.780;2022-11-20T04:46:17;-6.10;1.00
573;DHT22;271;51.114;13.780;2022-11-20T04:48:44;-6.10;1.00
573;DHT22;271;51.114;13.780;2022-11-20T04:51:12;-6.20;1.00
573;DHT22;271;51.114;13.780;2022-11-20T04:53:39;-6.20;1.00
573;DHT22;271;51.114;13.780;2022-11-20T04:56:08;-6.20;1.00
573;DHT22;271;51.114;13.780;2022-11-20T04:58:39;-6.20;1.00
573;DHT22;271;51.114;13.780;2022-11-20T05:01:09;-6.20;1.00
573;DHT22;271;51.114;13.780;2022-11-20T05:03:36;-6.30;1.00
573;DHT22;271;51.114;13.780;2022-11-20T05:06:05;-6.30;1.00
573;DHT22;271;51.114;13.780;2022-11-20T05:08:33;-6.30;1.00
573;DHT22;271;51.114;13.780;2022-11-20T05:11:01;-6.40;1.00
573;DHT22;271;51.114;13.780;2022-11-20T05:13:29;-6.30;1.00
573;DHT22;271;51.114;13.780;2022-11-20T05:16:03;-6.30;1.00
573;DHT22;271;51.114;13.780;2022-11-20T05:18:30;-6.30;1.00
573;DHT22;271;51.114;13.780;2022-11-20T05:20:58;-6.30;1.00
573;DHT22;271;51.114;13.780;2022-11-20T05:23:25;-6.20;1.00
573;DHT22;271;51.114;13.780;2022-11-20T05:25:53;-6.30;1.00
573;DHT22;271;51.114;13.780;2022-11-20T05:28:21;-6.30;1.00
573;DHT22;271;51.114;13.780;2022-11-20T05:30:49;-6.40;1.00
573;DHT22;271;51.114;13.780;2022-11-20T05:33:18;-6.40;1.00
573;DHT22;271;51.114;13.780;2022-11-20T05:35:45;-6.40;1.00
573;DHT22;271;51.114;13.780;2022-11-20T05:38:14;-6.40;1.00
573;DHT22;271;51.114;13.780;2022-11-20T05:40:41;-6.30;1.00
573;DHT22;271;51.114;13.780;2022-11-20T05:43:09;-6.30;1.00
573;DHT22;271;51.114;13.780;2022-11-20T05:45:36;-6.30;1.00
573;DHT22;271;51.114;13.780;2022-11-20T05:48:04;-6.30;1.00
573;DHT22;271;51.114;13.780;2022-11-20T05:50:33;-6.40;1.00
573;DHT22;271;51.114;13.780;2022-11-20T05:53:00;-6.40;1.00
573;DHT22;271;51.114;13.780;2022-11-20T05:55:28;-6.30;1.00
573;DHT22;271;51.114;13.780;2022-11-20T05:57:55;-6.30;1.00
573;DHT22;271;51.114;13.780;2022-11-20T06:00:22;-6.30;1.00
573;DHT22;271;51.114;13.780;2022-11-20T06:02:50;-6.30;1.00
573;DHT22;271;51.114;13.780;2022-11-20T06:05:17;-6.30;1.00
573;DHT22;271;51.114;13.780;2022-11-20T06:07:46;-6.30;1.00
573;DHT22;271;51.114;13.780;2022-11-20T06:10:14;-6.20;1.00
573;DHT22;271;51.114;13.780;2022-11-20T06:12:41;-6.30;1.00
573;DHT22;271;51.114;13.780;2022-11-20T06:15:09;-6.30;1.00
573;DHT22;271;51.114;13.780;2022-11-20T06:17:37;-6.40;1.00
573;DHT22;271;51.114;13.780;2022-11-20T06:20:05;-6.40;1.00
573;DHT22;271;51.114;13.780;2022-11-20T06:22:33;-6.40;1.00
573;DHT22;271;51.114;13.780;2022-11-20T06:25:01;-6.30;1.00
573;DHT22;271;51.114;13.780;2022-11-20T06:27:29;-6.10;1.00
573;DHT22;271;51.114;13.780;2022-11-20T06:29:56;-6.30;1.00
573;DHT22;271;51.114;13.780;2022-11-20T06:32:23;-6.30;1.00
573;DHT22;271;51.114;13.780;2022-11-20T06:34:51;-6.30;1.00
573;DHT22;271;51.114;13.780;2022-11-20T06:37:18;-6.30;1.00
573;DHT22;271;51.114;13.780;2022-11-20T06:39:46;-6.30;1.00
573;DHT22;271;51.114;13.780;2022-11-20T06:42:14;-6.20;1.00
573;DHT22;271;51.114;13.780;2022-11-20T06:44:42;-6.20;1.00
573;DHT22;271;51.114;13.780;2022-11-20T06:47:09;-6.30;1.00
573;DHT22;271;51.114;13.780;2022-11-20T06:49:36;-6.40;1.00
573;DHT22;271;51.114;13.780;2022-11-20T06:52:04;-6.40;1.00
573;DHT22;271;51.114;13.780;2022-11-20T06:54:31;-6.40;1.00
573;DHT22;271;51.114;13.780;2022-11-20T06:56:59;-6.40;1.00
573;DHT22;271;51.114;13.780;2022-11-20T06:59:28;-6.40;1.00
573;DHT22;271;51.114;13.780;2022-11-20T07:01:55;-6.40;1.00
573;DHT22;271;51.114;13.780;2022-11-20T07:04:22;-6.30;1.00
573;DHT22;271;51.114;13.780;2022-11-20T07:06:50;-6.40;1.00
573;DHT22;271;51.114;13.780;2022-11-20T07:09:17;-6.30;1.00
573;DHT22;271;51.114;13.780;2022-11-20T07:11:44;-6.20;1.00
573;DHT22;271;51.114;13.780;2022-11-20T07:14:12;-6.10;1.00
573;DHT22;271;51.114;13.780;2022-11-20T07:16:41;-6.10;1.00
573;DHT22;271;51.114;13.780;2022-11-20T07:19:08;-6.00;1.00
573;DHT22;271;51.114;13.780;2022-11-20T07:21:35;-6.00;1.00
573;DHT22;271;51.114;13.780;2022-11-20T07:24:03;-5.90;1.00
573;DHT22;271;51.114;13.780;2022-11-20T07:26:30;-5.90;1.00
573;DHT22;271;51.114;13.780;2022-11-20T07:28:58;-5.80;1.00
573;DHT22;271;51.114;13.780;2022-11-20T07:31:25;-5.80;1.00
573;DHT22;271;51.114;13.780;2022-11-20T07:33:54;-5.70;1.00
573;DHT22;271;51.114;13.780;2022-11-20T07:36:21;-5.70;1.00
573;DHT22;271;51.114;13.780;2022-11-20T07:38:49;-5.60;1.00
573;DHT22;271;51.114;13.780;2022-11-20T07:41:16;-5.50;1.00
573;DHT22;271;51.114;13.780;2022-11-20T07:43:44;-5.50;1.00
573;DHT22;271;51.114;13.780;2022-11-20T07:46:11;-5.50;1.00
573;DHT22;271;51.114;13.780;2022-11-20T07:48:39;-5.40;1.00
573;DHT22;271;51.114;13.780;2022-11-20T07:51:08;-5.30;1.00
573;DHT22;271;51.114;13.780;2022-11-20T07:53:35;-5.20;1.00
573;DHT22;271;51.114;13.780;2022-11-20T07:56:03;-5.10;1.00
573;DHT22;271;51.114;13.780;2022-11-20T07:58:31;-5.00;1.00
573;DHT22;271;51.114;13.780;2022-11-20T08:01:03;-4.90;1.00
573;DHT22;271;51.114;13.780;2022-11-20T08:03:43;-4.90;1.00
573;DHT22;271;51.114;13.780;2022-11-20T08:06:17;-4.80;1.00
573;DHT22;271;51.114;13.780;2022-11-20T08:08:45;-4.70;1.00
573;DHT22;271;51.114;13.780;2022-11-20T08:11:13;-4.50;1.00
573;DHT22;271;51.114;13.780;2022-11-20T08:14:17;-4.50;1.00
573;DHT22;271;51.114;13.780;2022-11-20T08:20:30;-4.20;1.00
573;DHT22;271;51.114;13.780;2022-11-20T08:23:00;-3.80;1.00
573;DHT22;271;51.114;13.780;2022-11-20T08:25:28;-3.50;1.00
573;DHT22;271;51.114;13.780;2022-11-20T08:27:57;-3.00;1.00
573;DHT22;271;51.114;13.780;2022-11-20T08:30:25;-2.50;1.00
573;DHT22;271;51.114;13.780;2022-11-20T08:32:52;-1.80;1.00
573;DHT22;271;51.114;13.780;2022-11-20T08:35:20;-1.40;1.00
573;DHT22;271;51.114;13.780;2022-11-20T08:37:48;-0.50;1.00
573;DHT22;271;51.114;13.780;2022-11-20T08:40:17;-0.20;1.00
573;DHT22;271;51.114;13.780;2022-11-20T08:42:48;0.20;1.00
573;DHT22;271;51.114;13.780;2022-11-20T08:45:16;0.60;1.00
573;DHT22;271;51.114;13.780;2022-11-20T08:47:44;0.80;1.00
573;DHT22;271;51.114;13.780;2022-11-20T08:50:13;1.10;1.00
573;DHT22;271;51.114;13.780;2022-11-20T08:52:41;1.40;1.00
573;DHT22;271;51.114;13.780;2022-11-20T08:55:09;1.60;1.00
573;DHT22;271;51.114;13.780;2022-11-20T08:57:38;2.00;1.00
573;DHT22;271;51.114;13.780;2022-11-20T09:00:07;2.30;1.00
573;DHT22;271;51.114;13.780;2022-11-20T09:02:34;2.40;1.00
573;DHT22;271;51.114;13.780;2022-11-20T09:05:03;2.50;1.00
573;DHT22;271;51.114;13.780;2022-11-20T09:07:30;2.60;1.00
573;DHT22;271;51.114;13.780;2022-11-20T09:09:57;2.90;1.00
573;DHT22;271;51.114;13.780;2022-11-20T09:12:25;3.10;1.00
573;DHT22;271;51.114;13.780;2022-11-20T09:15:00;3.10;1.00
573;DHT22;271;51.114;13.780;2022-11-20T09:17:27;3.30;1.00
573;DHT22;271;51.114;13.780;2022-11-20T09:19:54;3.70;1.00
573;DHT22;271;51.114;13.780;2022-11-20T09:22:22;3.90;1.00
573;DHT22;271;51.114;13.780;2022-11-20T09:24:49;4.40;1.00
573;DHT22;271;51.114;13.780;2022-11-20T09:27:17;4.60;1.00
573;DHT22;271;51.114;13.780;2022-11-20T09:29:47;4.70;1.00
573;DHT22;271;51.114;13.780;2022-11-20T09:32:16;4.90;1.00
573;DHT22;271;51.114;13.780;2022-11-20T09:34:43;4.80;1.00
573;DHT22;271;51.114;13.780;2022-11-20T09:37:16;4.80;1.00
573;DHT22;271;51.114;13.780;2022-11-20T09:43:01;5.60;1.00
573;DHT22;271;51.114;13.780;2022-11-20T09:45:38;5.90;1.00
573;DHT22;271;51.114;13.780;2022-11-20T09:48:21;6.00;1.00
573;DHT22;271;51.114;13.780;2022-11-20T09:50:57;6.10;1.00
573;DHT22;271;51.114;13.780;2022-11-20T09:53:33;6.30;1.00
573;DHT22;271;51.114;13.780;2022-11-20T09:56:03;6.80;1.00
573;DHT22;271;51.114;13.780;2022-11-20T09:58:33;7.00;1.00
573;DHT22;271;51.114;13.780;2022-11-20T10:01:09;7.30;1.00
573;DHT22;271;51.114;13.780;2022-11-20T10:03:46;7.50;1.00
573;DHT22;271;51.114;13.780;2022-11-20T10:06:19;7.70;1.00
573;DHT22;271;51.114;13.780;2022-11-20T10:08:55;7.60;1.00
573;DHT22;271;51.114;13.780;2022-11-20T10:11:33;7.50;1.00
573;DHT22;271;51.114;13.780;2022-11-20T10:14:10;6.60;1.00
573;DHT22;271;51.114;13.780;2022-11-20T10:16:44;6.40;1.00
573;DHT22;271;51.114;13.780;2022-11-20T10:19:29;6.10;1.00
573;DHT22;271;51.114;13.780;2022-11-20T10:22:09;5.90;1.00
573;DHT22;271;51.114;13.780;2022-11-20T10:24:48;5.60;1.00
573;DHT22;271;51.114;13.780;2022-11-20T10:27:46;5.30;1.00
573;DHT22;271;51.114;13.780;2022-11-20T10:30:24;5.30;1.00
573;DHT22;271;51.114;13.780;2022-11-20T10:32:53;5.60;1.00
573;DHT22;271;51.114;13.780;2022-11-20T10:35:26;5.70;1.00
573;DHT22;271;51.114;13.780;2022-11-20T10:37:59;5.50;1.00
573;DHT22;271;51.114;13.780;2022-11-20T10:40:32;5.50;1.00
573;DHT22;271;51.114;13.780;2022-11-20T10:43:04;5.10;1.00
573;DHT22;271;51.114;13.780;2022-11-20T10:45:40;4.70;1.00
573;DHT22;271;51.114;13.780;2022-11-20T10:48:15;4.50;1.00
573;DHT22;271;51.114;13.780;2022-11-20T10:50:53;4.30;1.00
573;DHT22;271;51.114;13.780;2022-11-20T10:53:39;4.10;1.00
573;DHT22;271;51.114;13.780;2022-11-20T10:56:11;3.90;1.00
573;DHT22;271;51.114;13.780;2022-11-20T10:58:48;3.50;1.00
573;DHT22;271;51.114;13.780;2022-11-20T11:01:19;3.00;1.00
573;DHT22;271;51.114;13.780;2022-11-20T11:03:48;2.50;1.00
573;DHT22;271;51.114;13.780;2022-11-20T11:06:23;2.30;1.00
573;DHT22;271;51.114;13.780;2022-11-20T11:08:54;2.10;1.00
573;DHT22;271;51.114;13.780;2022-11-20T11:11:27;2.40;1.00
573;DHT22;271;51.114;13.780;2022-11-20T11:14:05;2.50;1.00
573;DHT22;271;51.114;13.780;2022-11-20T11:16:32;2.70;1.00
573;DHT22;271;51.114;13.780;2022-11-20T11:19:13;2.80;1.00
573;DHT22;271;51.114;13.780;2022-11-20T11:21:47;2.90;1.00
573;DHT22;271;51.114;13.780;2022-11-20T11:24:20;2.40;1.00
573;DHT22;271;51.114;13.780;2022-11-20T11:26:53;2.10;1.00
573;DHT22;271;51.114;13.780;2022-11-20T11:29:22;2.00;1.00
573;DHT22;271;51.114;13.780;2022-11-20T11:31:49;1.90;1.00
573;DHT22;271;51.114;13.780;2022-11-20T11:34:17;1.80;1.00
573;DHT22;271;51.114;13.780;2022-11-20T11:36:56;2.00;1.00
573;DHT22;271;51.114;13.780;2022-11-20T11:39:25;2.00;1.00
573;DHT22;271;51.114;13.780;2022-11-20T11:41:54;2.10;1.00
573;DHT22;271;51.114;13.780;2022-11-20T11:44:23;1.90;1.00
573;DHT22;271;51.114;13.780;2022-11-20T11:47:11;1.70;1.00
573;DHT22;271;51.114;13.780;2022-11-20T11:49:46;1.70;1.00
573;DHT22;271;51.114;13.780;2022-11-20T11:52:17;1.70;1.00
573;DHT22;271;51.114;13.780;2022-11-20T11:54:50;1.90;1.00
573;DHT22;271;51.114;13.780;2022-11-20T11:57:28;1.70;1.00
573;DHT22;271;51.114;13.780;2022-11-20T12:00:02;1.60;1.00
573;DHT22;271;51.114;13.780;2022-11-20T12:02:36;1.60;1.00
573;DHT22;271;51.114;13.780;2022-11-20T12:05:13;1.60;1.00
573;DHT22;271;51.114;13.780;2022-11-20T12:07:47;1.70;1.00
573;DHT22;271;51.114;13.780;2022-11-20T12:10:20;1.60;1.00
573;DHT22;271;51.114;13.780;2022-11-20T12:12:51;1.60;1.00
573;DHT22;271;51.114;13.780;2022-11-20T12:15:30;1.50;1.00
573;DHT22;271;51.114;13.780;2022-11-20T12:18:01;1.40;1.00
573;DHT22;271;51.114;13.780;2022-11-20T12:21:06;1.50;1.00
573;DHT22;271;51.114;13.780;2022-11-20T12:24:19;1.40;1.00
573;DHT22;271;51.114;13.780;2022-11-20T12:27:11;1.40;1.00
573;DHT22;271;51.114;13.780;2022-11-20T12:29:47;1.50;1.00
573;DHT22;271;51.114;13.780;2022-11-20T12:32:38;1.40;1.00
573;DHT22;271;51.114;13.780;2022-11-20T12:35:19;1.50;1.00
573;DHT22;271;51.114;13.780;2022-11-20T12:37:57;1.50;1.00
573;DHT22;271;51.114;13.780;2022-11-20T12:40:35;1.40;1.00
573;DHT22;271;51.114;13.780;2022-11-20T12:43:13;1.30;1.00
573;DHT22;271;51.114;13.780;2022-11-20T12:46:11;1.40;1.00
573;DHT22;271;51.114;13.780;2022-11-20T12:48:53;1.60;1.00
573;DHT22;271;51.114;13.780;2022-11-20T12:51:52;1.70;1.00
573;DHT22;271;51.114;13.780;2022-11-20T12:57:46;2.00;1.00
573;DHT22;271;51.114;13.780;2022-11-20T13:00:18;2.00;1.00
573;DHT22;271;51.114;13.780;2022-11-20T13:03:20;1.90;1.00
573;DHT22;271;51.114;13.780;2022-11-20T13:05:58;1.90;1.00
573;DHT22;271;51.114;13.780;2022-11-20T13:08:29;1.80;1.00
573;DHT22;271;51.114;13.780;2022-11-20T13:11:03;1.80;1.00
573;DHT22;271;51.114;13.780;2022-11-20T13:13:42;1.70;1.00
573;DHT22;271;51.114;13.780;2022-11-20T13:16:15;1.60;1.00
573;DHT22;271;51.114;13.780;2022-11-20T13:18:43;1.60;1.00
573;DHT22;271;51.114;13.780;2022-11-20T13:21:18;1.60;1.00
573;DHT22;271;51.114;13.780;2022-11-20T13:23:46;1.60;1.00
573;DHT22;271;51.114;13.780;2022-11-20T13:26:17;1.40;1.00
573;DHT22;271;51.114;13.780;2022-11-20T13:28:48;1.50;1.00
573;DHT22;271;51.114;13.780;2022-11-20T13:31:31;1.50;1.00
573;DHT22;271;51.114;13.780;2022-11-20T13:34:02;1.60;1.00
573;DHT22;271;51.114;13.780;2022-11-20T13:36:30;1.70;1.00
573;DHT22;271;51.114;13.780;2022-11-20T13:38:59;1.60;1.00
573;DHT22;271;51.114;13.780;2022-11-20T13:41:27;1.50;1.00
573;DHT22;271;51.114;13.780;2022-11-20T13:44:09;1.50;1.00
573;DHT22;271;51.114;13.780;2022-11-20T13:46:40;1.40;1.00
573;DHT22;271;51.114;13.780;2022-11-20T13:49:14;1.40;1.00
573;DHT22;271;51.114;13.780;2022-11-20T13:51:44;1.40;1.00
573;DHT22;271;51.114;13.780;2022-11-20T13:54:44;1.40;1.00
573;DHT22;271;51.114;13.780;2022-11-20T13:57:46;1.30;1.00
573;DHT22;271;51.114;13.780;2022-11-20T14:00:19;1.20;1.00
573;DHT22;271;51.114;13.780;2022-11-20T14:02:53;1.10;1.00
573;DHT22;271;51.114;13.780;2022-11-20T14:05:26;1.00;1.00
573;DHT22;271;51.114;13.780;2022-11-20T14:07:54;1.00;1.00
573;DHT22;271;51.114;13.780;2022-11-20T14:10:24;0.90;1.00
573;DHT22;271;51.114;13.780;2022-11-20T14:12:52;0.90;1.00
573;DHT22;271;51.114;13.780;2022-11-20T14:15:29;0.90;1.00
573;DHT22;271;51.114;13.780;2022-11-20T14:17:57;0.90;1.00
573;DHT22;271;51.114;13.780;2022-11-20T14:20:29;0.90;1.00
573;DHT22;271;51.114;13.780;2022-11-20T14:22:57;1.00;1.00
573;DHT22;271;51.114;13.780;2022-11-20T14:25:25;1.00;1.00
573;DHT22;271;51.114;13.780;2022-11-20T14:27:55;1.00;1.00
573;DHT22;271;51.114;13.780;2022-11-20T14:30:24;1.10;1.00
573;DHT22;271;51.114;13.780;2022-11-20T14:32:56;1.00;1.00
573;DHT22;271;51.114;13.780;2022-11-20T14:35:26;1.00;1.00
573;DHT22;271;51.114;13.780;2022-11-20T14:37:55;1.00;1.00
573;DHT22;271;51.114;13.780;2022-11-20T14:40:25;0.90;1.00
573;DHT22;271;51.114;13.780;2022-11-20T14:42:53;0.90;1.00
573;DHT22;271;51.114;13.780;2022-11-20T14:45:21;0.80;1.00
573;DHT22;271;51.114;13.780;2022-11-20T14:47:49;0.90;1.00
573;DHT22;271;51.114;13.780;2022-11-20T14:50:24;0.80;1.00
573;DHT22;271;51.114;13.780;2022-11-20T14:52:53;0.70;1.00
573;DHT22;271;51.114;13.780;2022-11-20T14:55:35;0.70;1.00
573;DHT22;271;51.114;13.780;2022-11-20T14:58:04;0.60;1.00
573;DHT22;271;51.114;13.780;2022-11-20T15:00:34;0.50;1.00
573;DHT22;271;51.114;13.780;2022-11-20T15:03:01;0.40;1.00
573;DHT22;271;51.114;13.780;2022-11-20T15:08:22;0.40;1.00
573;DHT22;271;51.114;13.780;2022-11-20T15:10:51;0.30;1.00
573;DHT22;271;51.114;13.780;2022-11-20T15:13:24;0.20;1.00
573;DHT22;271;51.114;13.780;2022-11-20T15:15:54;0.20;1.00
573;DHT22;271;51.114;13.780;2022-11-20T15:18:23;0.20;1.00
573;DHT22;271;51.114;13.780;2022-11-20T15:20:51;0.00;1.00
573;DHT22;271;51.114;13.780;2022-11-20T15:23:23;0.10;1.00
573;DHT22;271;51.114;13.780;2022-11-20T15:25:51;0.00;1.00
573;DHT22;271;51.114;13.780;2022-11-20T15:28:20;-0.10;1.00
573;DHT22;271;51.114;13.780;2022-11-20T15:30:49;-0.10;1.00
573;DHT22;271;51.114;13.780;2022-11-20T15:33:17;-0.20;1.00
573;DHT22;271;51.114;13.780;2022-11-20T15:35:45;-0.10;1.00
573;DHT22;271;51.114;13.780;2022-11-20T15:38:12;-0.20;1.00
573;DHT22;271;51.114;13.780;2022-11-20T15:40:41;-0.30;1.00
573;DHT22;271;51.114;13.780;2022-11-20T15:43:08;-0.30;1.00
573;DHT22;271;51.114;13.780;2022-11-20T15:45:39;-0.40;1.00
573;DHT22;271;51.114;13.780;2022-11-20T15:48:11;-0.40;1.00
573;DHT22;271;51.114;13.780;2022-11-20T15:50:46;-0.40;1.00
573;DHT22;271;51.114;13.780;2022-11-20T15:53:16;-0.40;1.00
573;DHT22;271;51.114;13.780;2022-11-20T15:55:45;-0.50;1.00
573;DHT22;271;51.114;13.780;2022-11-20T15:58:13;-0.50;1.00
573;DHT22;271;51.114;13.780;2022-11-20T16:00:40;-0.60;1.00
573;DHT22;271;51.114;13.780;2022-11-20T16:03:09;-0.60;1.00
573;DHT22;271;51.114;13.780;2022-11-20T16:05:38;-0.70;1.00
573;DHT22;271;51.114;13.780;2022-11-20T16:08:05;-0.80;1.00
573;DHT22;271;51.114;13.780;2022-11-20T16:10:32;-0.80;1.00
573;DHT22;271;51.114;13.780;2022-11-20T16:13:01;-0.90;1.00
573;DHT22;271;51.114;13.780;2022-11-20T16:15:50;-1.00;1.00
573;DHT22;271;51.114;13.780;2022-11-20T16:18:20;-1.00;1.00
573;DHT22;271;51.114;13.780;2022-11-20T16:20:50;-1.00;1.00
573;DHT22;271;51.114;13.780;2022-11-20T16:23:18;-1.00;1.00
573;DHT22;271;51.114;13.780;2022-11-20T16:25:46;-1.00;1.00
573;DHT22;271;51.114;13.780;2022-11-20T16:28:15;-1.00;1.00
573;DHT22;271;51.114;13.780;2022-11-20T16:30:43;-1.00;1.00
573;DHT22;271;51.114;13.780;2022-11-20T16:33:12;-1.00;1.00
573;DHT22;271;51.114;13.780;2022-11-20T16:35:40;-1.10;1.00
573;DHT22;271;51.114;13.780;2022-11-20T16:38:07;-1.20;1.00
573;DHT22;271;51.114;13.780;2022-11-20T16:40:35;-1.30;1.00
573;DHT22;271;51.114;13.780;2022-11-20T16:43:07;-1.30;1.00
573;DHT22;271;51.114;13.780;2022-11-20T16:45:40;-1.30;1.00
573;DHT22;271;51.114;13.780;2022-11-20T16:48:11;-1.30;1.00
573;DHT22;271;51.114;13.780;2022-11-20T16:50:45;-1.40;1.00
573;DHT22;271;51.114;13.780;2022-11-20T16:53:14;-1.50;1.00
573;DHT22;271;51.114;13.780;2022-11-20T16:55:41;-1.50;1.00
573;DHT22;271;51.114;13.780;2022-11-20T16:58:09;-1.60;1.00
573;DHT22;271;51.114;13.780;2022-11-20T17:00:37;-1.60;1.00
573;DHT22;271;51.114;13.780;2022-11-20T17:03:06;-1.70;1.00
573;DHT22;271;51.114;13.780;2022-11-20T17:05:34;-1.70;1.00
573;DHT22;271;51.114;13.780;2022-11-20T17:08:02;-1.70;1.00
573;DHT22;271;51.114;13.780;2022-11-20T17:10:30;-1.70;1.00
573;DHT22;271;51.114;13.780;2022-11-20T17:12:57;-1.70;1.00
573;DHT22;271;51.114;13.780;2022-11-20T17:15:24;-1.80;1.00
573;DHT22;271;51.114;13.780;2022-11-20T17:17:52;-1.80;1.00